Time;durP1;ratioP1;P1;durP2;ratioP2;P2;SDS_P1;SDS_P2;PMS_P1;PMS_P2;Temp;Humidity;BMP_temperature;BMP_pressure;BME280_temperature;BME280_humidity;BME280_pressure;Samples;Min_cycle;Max_cycle;Signal;HPM_P1;HPM_P2
2022/12/21 00:00:08;;;;;;;4.65;2.20;;;;;;;3.57;89.25;93040.75;5065267;28;20039;-78
2022/12/21 00:02:39;;;;;;;3.58;1.98;;;;;;;3.59;88.87;93043.91;5084040;28;20056;-78
2022/12/21 00:05:07;;;;;;;3.47;1.90;;;;;;;3.62;88.78;93040.84;5085257;28;20040;-78
2022/12/21 00:07:32;;;;;;;3.20;1.73;;;;;;;3.67;88.80;93043.53;5067495;28;20040;-79
2022/12/21 00:09:58;;;;;;;3.38;1.80;;;;;;;3.66;89.50;93031.63;5050962;28;20037;-78
2022/12/21 00:12:25;;;;;;;3.88;1.92;;;;;;;3.68;89.46;93035.53;5051238;28;20036;-78
2022/12/21 00:14:50;;;;;;;4.75;2.17;;;;;;;3.69;88.95;93031.16;5068334;28;20074;-78
2022/12/21 00:17:16;;;;;;;4.63;2.22;;;;;;;3.67;89.01;93036.56;5085860;28;20041;-79
2022/12/21 00:19:43;;;;;;;4.70;2.30;;;;;;;3.66;88.80;93021.25;5085533;28;20047;-78
2022/12/21 00:22:09;;;;;;;4.00;2.10;;;;;;;3.67;88.64;93012.47;5084686;28;20626;-78
2022/12/21 00:24:34;;;;;;;4.13;2.22;;;;;;;3.68;88.49;93019.22;5066377;28;20041;-78
2022/12/21 00:27:00;;;;;;;4.70;1.98;;;;;;;3.70;88.75;93019.78;5066775;28;20402;-78
2022/12/21 00:29:26;;;;;;;4.30;1.80;;;;;;;3.73;89.10;93006.38;5065839;28;20041;-79
2022/12/21 00:31:53;;;;;;;3.00;1.73;;;;;;;3.73;89.89;93003.78;5065820;28;20097;-78
2022/12/21 00:34:21;;;;;;;3.95;1.95;;;;;;;3.76;89.51;93008.53;5050586;28;20409;-78
2022/12/21 00:36:47;;;;;;;3.40;1.70;;;;;;;3.77;89.84;93001.53;5070786;28;20035;-79
2022/12/21 00:39:14;;;;;;;3.80;1.80;;;;;;;3.77;89.82;92991.94;5053895;28;20041;-78
2022/12/21 00:41:42;;;;;;;2.80;1.75;;;;;;;3.80;89.59;92990.69;5054620;28;20036;-79
2022/12/21 00:44:09;;;;;;;2.70;1.52;;;;;;;3.85;89.08;92996.78;5088856;28;20032;-78
2022/12/21 00:46:34;;;;;;;3.92;1.90;;;;;;;3.83;89.42;93001.38;5071067;28;20070;-78
2022/12/21 00:49:03;;;;;;;3.08;1.90;;;;;;;3.80;89.71;92990.69;5071051;28;20135;-78
2022/12/21 00:51:29;;;;;;;3.40;1.67;;;;;;;3.76;89.80;92990.41;5089258;28;20437;-79
2022/12/21 00:53:57;;;;;;;3.40;1.70;;;;;;;3.75;89.77;92983.63;5071607;28;20035;-78
2022/12/21 00:56:23;;;;;;;3.20;1.75;;;;;;;3.75;89.72;92973.25;5070921;28;20045;-78
2022/12/21 00:58:49;;;;;;;3.03;1.80;;;;;;;3.77;89.97;92965.28;5070052;28;20037;-78
2022/12/21 01:01:17;;;;;;;3.10;1.70;;;;;;;3.77;89.77;92950.50;5071072;28;20108;-79
2022/12/21 01:03:43;;;;;;;2.60;1.58;;;;;;;3.89;88.12;92960.81;5070215;28;20054;-78
2022/12/21 01:06:21;;;;;;;3.70;1.90;;;;;;;3.83;88.12;92959.94;5070957;28;20025;-78
2022/12/21 01:08:46;;;;;;;3.65;1.88;;;;;;;3.83;88.09;92953.97;5088810;28;20059;-79
2022/12/21 01:11:15;;;;;;;6.00;2.30;;;;;;;3.80;87.48;92955.22;5070462;28;20037;-79
2022/12/21 01:13:43;;;;;;;3.40;2.00;;;;;;;3.78;87.97;92951.28;5070205;28;20022;-78
2022/12/21 01:16:27;;;;;;;4.75;2.30;;;;;;;3.82;87.65;92942.81;5070735;28;20032;-78
2022/12/21 01:18:53;;;;;;;3.97;2.13;;;;;;;3.85;86.01;92941.56;5088264;28;20035;-78
2022/12/21 01:21:25;;;;;;;4.78;2.30;;;;;;;3.77;86.14;92937.56;5087990;28;20033;-78
2022/12/21 01:23:51;;;;;;;4.57;2.25;;;;;;;3.77;86.52;92936.78;5070440;28;20369;-78
2022/12/21 01:26:17;;;;;;;4.65;2.13;;;;;;;3.72;86.94;92937.50;5088628;28;20038;-78
2022/12/21 01:28:43;;;;;;;3.47;1.92;;;;;;;3.71;87.08;92944.44;5051379;28;20037;-78
2022/12/21 01:31:09;;;;;;;5.15;2.17;;;;;;;3.72;87.25;92940.06;5048824;28;20128;-78
2022/12/21 01:33:35;;;;;;;4.32;2.13;;;;;;;3.72;87.59;92940.06;5032264;28;20032;-78
2022/12/21 01:36:06;;;;;;;3.75;2.30;;;;;;;3.71;86.04;92951.44;5066393;28;20033;-78
2022/12/21 01:38:31;;;;;;;4.40;2.30;;;;;;;3.72;86.27;92953.03;5049496;28;20071;-78
2022/12/21 01:40:57;;;;;;;4.85;2.40;;;;;;;3.72;85.63;92958.19;5067453;28;20033;-79
2022/12/21 01:43:41;;;;;;;4.82;2.33;;;;;;;3.70;86.07;92966.19;5049542;28;20040;-77
2022/12/21 01:46:20;;;;;;;6.95;2.45;;;;;;;3.71;86.13;92966.97;5048412;28;20045;-78
2022/12/21 01:48:59;;;;;;;3.05;2.00;;;;;;;3.78;84.97;92961.66;5048949;28;20029;-78
2022/12/21 01:51:25;;;;;;;4.05;2.13;;;;;;;3.75;85.37;92968.09;5031658;28;20025;-79
2022/12/21 01:54:04;;;;;;;3.97;2.20;;;;;;;3.73;85.26;92972.72;5061448;28;20048;-78
2022/12/21 01:56:32;;;;;;;5.78;2.10;;;;;;;3.67;85.29;92963.28;5066518;28;20029;-77
2022/12/21 01:59:09;;;;;;;5.45;2.30;;;;;;;3.68;85.19;92963.03;5048465;28;20041;-78
2022/12/21 02:01:36;;;;;;;3.72;2.17;;;;;;;3.70;84.80;92960.22;5047980;28;20479;-78
2022/12/21 02:04:01;;;;;;;5.60;2.20;;;;;;;3.65;84.69;92958.34;5048275;28;20119;-77
2022/12/21 02:06:45;;;;;;;4.13;2.22;;;;;;;3.69;84.94;92974.19;5066107;28;20495;-78
2022/12/21 02:09:13;;;;;;;5.90;2.00;;;;;;;3.69;85.51;92963.81;5047049;28;20397;-78
2022/12/21 02:11:40;;;;;;;4.93;2.22;;;;;;;3.64;86.88;92961.94;5046980;28;20043;-77
2022/12/21 02:14:14;;;;;;;5.30;2.08;;;;;;;3.65;87.60;92957.56;5046519;28;20474;-78
2022/12/21 02:16:52;;;;;;;4.57;1.92;;;;;;;3.63;87.20;92957.00;5059929;28;20465;-77
2022/12/21 02:19:21;;;;;;;5.18;2.20;;;;;;;3.61;87.41;92951.28;5039877;28;20307;-78
2022/12/21 02:21:52;;;;;;;3.20;1.88;;;;;;;3.61;87.41;92935.75;5047204;28;20048;-77
2022/12/21 02:24:37;;;;;;;4.47;2.17;;;;;;;3.54;87.55;92934.06;5047602;28;20407;-78
2022/12/21 02:27:30;;;;;;;3.38;1.90;;;;;;;3.59;87.90;92938.56;5059519;28;20077;-77
2022/12/21 02:30:07;;;;;;;6.70;2.03;;;;;;;3.58;88.24;92931.00;5027402;28;20410;-78
2022/12/21 02:33:03;;;;;;;5.38;1.80;;;;;;;3.58;88.57;92926.63;5065914;28;20029;-78
2022/12/21 02:35:35;;;;;;;3.40;1.80;;;;;;;3.53;89.86;92916.97;5047798;28;20033;-79
2022/12/21 02:38:13;;;;;;;4.50;2.17;;;;;;;3.55;89.61;92925.28;5065071;28;20033;-78
2022/12/21 02:41:07;;;;;;;4.05;1.92;;;;;;;3.55;89.79;92922.69;5047467;28;20033;-79
2022/12/21 02:44:14;;;;;;;4.95;2.10;;;;;;;3.53;89.64;92914.38;5047614;28;20040;-78
2022/12/21 02:46:45;;;;;;;4.30;2.08;;;;;;;3.51;89.68;92906.06;5048096;28;20041;-78
2022/12/21 02:49:21;;;;;;;3.60;1.92;;;;;;;3.51;89.43;92906.06;5065977;28;20037;-78
2022/12/21 02:52:15;;;;;;;4.53;2.10;;;;;;;3.51;89.15;92906.06;5047512;28;20070;-79
2022/12/21 02:54:41;;;;;;;3.05;1.80;;;;;;;3.52;89.36;92897.28;5048177;28;20128;-78
2022/12/21 02:57:07;;;;;;;3.17;1.70;;;;;;;3.64;88.51;92899.00;5046813;28;20043;-78
2022/12/21 02:59:39;;;;;;;3.97;2.10;;;;;;;3.68;86.77;92910.47;5030559;28;20856;-78
2022/12/21 03:02:12;;;;;;;3.50;2.00;;;;;;;3.69;86.79;92907.66;5047686;28;20060;-78
2022/12/21 03:05:02;;;;;;;4.03;1.90;;;;;;;3.81;85.25;92909.41;5064930;28;20036;-78
2022/12/21 03:07:44;;;;;;;4.45;1.75;;;;;;;3.77;86.31;92913.47;5048328;28;20029;-78
2022/12/21 03:10:31;;;;;;;4.03;2.05;;;;;;;3.68;86.21;92910.47;5047598;28;20028;-78
2022/12/21 03:13:19;;;;;;;4.30;1.95;;;;;;;3.69;86.49;92912.03;5048042;28;20025;-78
2022/12/21 03:15:59;;;;;;;3.92;1.80;;;;;;;3.67;86.22;92912.28;5047584;28;20490;-78
2022/12/21 03:18:50;;;;;;;3.10;1.90;;;;;;;3.67;86.41;92901.94;5030845;28;20037;-78
2022/12/21 03:21:27;;;;;;;4.05;1.80;;;;;;;3.66;86.26;92897.75;5065540;28;20037;-78
2022/12/21 03:23:53;;;;;;;3.85;1.90;;;;;;;3.66;85.97;92892.59;5065528;28;20025;-78
2022/12/21 03:26:25;;;;;;;3.50;1.90;;;;;;;3.66;86.06;92890.00;5047128;28;20108;-79
2022/12/21 03:28:53;;;;;;;4.25;2.05;;;;;;;3.67;86.17;92885.59;5064137;28;20068;-78
2022/12/21 03:31:27;;;;;;;3.30;1.67;;;;;;;3.67;86.18;92888.19;5064668;28;20029;-78
2022/12/21 03:34:19;;;;;;;3.30;1.88;;;;;;;3.65;86.19;92882.47;5065195;28;20033;-79
2022/12/21 03:37:01;;;;;;;4.30;1.90;;;;;;;3.66;86.46;92886.63;5064716;28;20108;-78
2022/12/21 03:39:29;;;;;;;3.55;1.92;;;;;;;3.65;87.22;92869.53;5046604;28;20032;-79
2022/12/21 03:42:05;;;;;;;3.00;1.90;;;;;;;3.63;87.50;92877.53;5064044;28;20037;-79
2022/12/21 03:44:40;;;;;;;3.42;1.70;;;;;;;3.59;88.59;92863.47;5064884;28;20041;-78
2022/12/21 03:47:12;;;;;;;3.25;1.83;;;;;;;3.58;88.31;92856.75;5047133;28;20060;-78
2022/12/21 03:50:04;;;;;;;4.00;1.83;;;;;;;3.60;88.29;92853.91;5047386;28;20056;-78
2022/12/21 03:52:39;;;;;;;4.03;2.03;;;;;;;3.62;87.84;92857.81;5047152;28;20037;-78
2022/12/21 03:55:14;;;;;;;3.53;2.00;;;;;;;3.66;87.31;92860.72;5047661;28;20033;-78
2022/12/21 03:57:41;;;;;;;6.45;1.90;;;;;;;3.67;87.40;92867.47;5064947;28;20403;-78
2022/12/21 04:00:10;;;;;;;2.97;1.65;;;;;;;3.64;87.23;92858.38;5046321;28;20064;-78
2022/12/21 04:02:47;;;;;;;3.90;1.98;;;;;;;3.62;87.44;92864.81;5047776;28;20037;-78
2022/12/21 04:05:13;;;;;;;3.95;2.10;;;;;;;3.61;87.71;92860.66;5064505;28;20037;-78
2022/12/21 04:07:41;;;;;;;4.10;2.05;;;;;;;3.58;88.02;92856.75;5047735;28;20127;-78
2022/12/21 04:10:13;;;;;;;3.80;2.10;;;;;;;3.58;87.76;92858.53;5050015;28;20092;-78
2022/12/21 04:12:39;;;;;;;4.88;2.10;;;;;;;3.44;87.55;92843.28;5069141;28;20167;-78
2022/12/21 04:15:20;;;;;;;4.50;2.00;;;;;;;3.58;87.73;92871.47;5068813;28;20084;-78
2022/12/21 04:17:49;;;;;;;5.75;2.00;;;;;;;3.56;87.82;92861.34;5069303;28;20501;-77
2022/12/21 04:20:18;;;;;;;3.80;2.00;;;;;;;3.58;88.02;92858.53;5050631;28;20127;-78
2022/12/21 04:28:28;;;;;;;6.50;2.08;;;;;;;3.54;87.55;92856.41;5085683;28;20044;-77
2022/12/21 04:30:55;;;;;;;4.10;2.08;;;;;;;3.59;87.56;92854.94;5093608;28;20060;-78
2022/12/21 04:33:22;;;;;;;2.92;1.73;;;;;;;3.58;88.29;92859.31;5090752;28;20074;-78
2022/12/21 04:38:39;;;;;;;4.68;2.20;;;;;;;3.60;86.27;92862.44;5089370;28;20113;-78
2022/12/21 04:41:05;;;;;;;5.75;2.90;;;;;;;3.58;86.03;92854.16;5089770;28;20025;-77
2022/12/21 04:43:31;;;;;;;4.07;2.58;;;;;;;3.54;86.55;92853.81;5072077;28;20028;-78
2022/12/21 04:46:06;;;;;;;4.50;2.60;;;;;;;3.53;86.73;92857.44;5055950;28;20131;-78
2022/12/21 04:48:32;;;;;;;5.03;2.30;;;;;;;3.49;87.56;92847.75;5089814;28;20036;-78
2022/12/21 04:51:05;;;;;;;4.20;2.50;;;;;;;3.50;88.08;92855.28;5089788;28;20131;-78
2022/12/21 04:53:32;;;;;;;5.97;2.58;;;;;;;3.49;88.23;92851.16;5089710;28;20032;-78
2022/12/21 04:55:57;;;;;;;6.60;2.55;;;;;;;3.48;88.44;92854.75;5071794;28;20024;-78
2022/12/21 04:58:23;;;;;;;4.93;2.50;;;;;;;3.44;88.29;92848.47;5089379;28;20047;-77
2022/12/21 05:00:48;;;;;;;5.20;2.40;;;;;;;3.48;87.72;92848.78;5067052;28;20025;-78
2022/12/21 05:03:14;;;;;;;4.30;2.15;;;;;;;3.48;87.68;92843.63;5062650;28;20082;-78
2022/12/21 05:05:40;;;;;;;5.57;2.50;;;;;;;3.51;87.46;92841.34;5062501;28;20067;-77
2022/12/21 05:08:05;;;;;;;4.90;2.60;;;;;;;3.52;87.64;92840.31;5083099;28;20029;-78
2022/12/21 05:10:50;;;;;;;3.53;1.90;;;;;;;3.52;89.14;92842.91;5069833;28;20096;-78
2022/12/21 05:13:16;;;;;;;4.03;2.40;;;;;;;3.51;88.76;92836.19;5087485;28;20040;-78
2022/12/21 05:15:41;;;;;;;5.03;2.13;;;;;;;3.51;88.89;92838.75;5070228;28;20040;-78
2022/12/21 05:18:08;;;;;;;4.38;2.17;;;;;;;3.52;89.85;92837.72;5082888;28;20024;-77
2022/12/21 05:20:33;;;;;;;4.63;2.00;;;;;;;3.52;90.45;92839.53;5083472;28;20040;-78
2022/12/21 05:23:00;;;;;;;3.78;2.10;;;;;;;3.51;91.51;92841.34;5068367;28;20025;-77
2022/12/21 05:25:26;;;;;;;4.25;1.83;;;;;;;3.51;89.96;92843.94;5087884;28;20041;-78
2022/12/21 05:27:51;;;;;;;4.07;1.92;;;;;;;3.53;89.67;92836.72;5052538;28;20133;-78
2022/12/21 05:30:17;;;;;;;3.63;1.80;;;;;;;3.62;87.88;92841.50;5087329;28;20052;-78
2022/12/21 05:32:43;;;;;;;4.22;1.88;;;;;;;3.65;87.72;92825.53;5085685;28;20061;-78
2022/12/21 05:35:10;;;;;;;4.63;2.33;;;;;;;3.67;87.26;92823.47;5087925;28;20095;-78
2022/12/21 05:37:35;;;;;;;5.10;2.85;;;;;;;3.67;86.91;92820.88;5086060;28;20111;-77
2022/12/21 05:40:02;;;;;;;5.45;2.50;;;;;;;3.65;88.21;92820.34;5080318;28;20068;-78
2022/12/21 05:42:28;;;;;;;3.70;2.03;;;;;;;3.64;87.99;92821.34;5079416;28;20048;-78
2022/12/21 05:44:53;;;;;;;3.72;1.90;;;;;;;3.64;88.94;92816.16;5066603;28;20044;-78
2022/12/21 05:47:19;;;;;;;3.95;2.00;;;;;;;3.64;89.70;92800.63;5086104;28;20036;-79
2022/12/21 05:49:44;;;;;;;3.75;2.00;;;;;;;3.65;89.52;92812.56;5040071;28;20032;-80
2022/12/21 05:52:11;;;;;;;4.47;2.10;;;;;;;3.81;87.54;92811.78;5069138;28;20056;-80
2022/12/21 05:54:37;;;;;;;5.13;2.40;;;;;;;3.75;86.17;92802.34;5050629;28;20533;-80
2022/12/21 05:57:03;;;;;;;4.28;2.10;;;;;;;3.79;83.79;92806.06;5080849;28;20113;-80
2022/12/21 05:59:28;;;;;;;5.10;2.15;;;;;;;3.75;84.50;92792.78;5086739;28;20039;-79
2022/12/21 06:01:54;;;;;;;5.07;2.75;;;;;;;3.71;85.24;92780.53;5060054;28;20036;-79
2022/12/21 06:04:19;;;;;;;5.38;2.40;;;;;;;3.69;85.11;92780.00;5068043;28;20065;-77
2022/12/21 06:06:46;;;;;;;5.13;2.53;;;;;;;3.69;85.93;92783.38;5080039;28;20052;-79
2022/12/21 06:09:12;;;;;;;5.03;2.38;;;;;;;3.78;86.18;92785.56;5080406;28;20090;-79
2022/12/21 06:11:38;;;;;;;4.28;2.30;;;;;;;3.77;85.29;92789.19;5061921;28;20460;-81
2022/12/21 06:14:04;;;;;;;4.82;2.45;;;;;;;3.69;85.89;92785.16;5059754;28;20513;-79
2022/12/21 06:16:30;;;;;;;5.20;2.50;;;;;;;3.65;86.43;92776.34;5060230;28;20060;-79
2022/12/21 06:18:57;;;;;;;4.60;2.30;;;;;;;3.63;86.59;92773.97;5049828;28;20035;-79
2022/12/21 06:21:23;;;;;;;4.53;2.30;;;;;;;3.57;86.80;92779.31;5059019;28;20127;-79
2022/12/21 06:23:48;;;;;;;4.15;2.10;;;;;;;3.59;86.22;92782.44;5082659;28;20032;-79
2022/12/21 06:26:17;;;;;;;3.60;2.20;;;;;;;3.56;86.58;92783.69;5082755;28;20100;-79
2022/12/21 06:28:53;;;;;;;4.80;2.30;;;;;;;3.55;87.25;92792.47;5053885;28;20463;-79
2022/12/21 06:31:20;;;;;;;4.95;2.05;;;;;;;3.75;85.82;92792.00;5046842;28;20044;-79
2022/12/21 06:33:46;;;;;;;3.80;2.25;;;;;;;3.75;85.09;92789.41;5063725;28;20088;-79
2022/12/21 06:36:12;;;;;;;4.07;2.17;;;;;;;3.68;85.54;92775.84;5043418;28;20161;-80
2022/12/21 06:38:38;;;;;;;5.05;2.00;;;;;;;3.71;86.21;92785.72;5047583;28;20748;-80
2022/12/21 06:41:11;;;;;;;3.60;2.03;;;;;;;3.66;86.82;92783.06;5064839;28;20060;-80
2022/12/21 06:43:38;;;;;;;6.45;1.90;;;;;;;3.89;86.00;92782.09;5047137;28;20052;-80
2022/12/21 06:46:09;;;;;;;5.20;1.85;;;;;;;3.76;86.23;92788.41;5064812;28;20040;-80
2022/12/21 06:48:36;;;;;;;4.78;2.40;;;;;;;3.69;87.23;92790.34;5065209;28;20025;-80
2022/12/21 06:51:09;;;;;;;6.40;2.38;;;;;;;3.63;87.98;92791.31;5064935;28;20562;-80
2022/12/21 06:53:37;;;;;;;4.72;2.53;;;;;;;3.57;88.25;92787.06;5026546;28;20565;-80
2022/12/21 06:56:06;;;;;;;4.90;2.88;;;;;;;3.55;88.67;92787.28;5026665;28;20025;-80
2022/12/21 06:58:32;;;;;;;5.43;2.65;;;;;;;3.50;88.93;92782.81;5026035;28;20041;-80
2022/12/21 07:01:08;;;;;;;5.00;2.50;;;;;;;3.47;89.62;92785.13;5025963;28;20105;-80
2022/12/21 07:03:34;;;;;;;12.02;5.22;;;;;;;3.45;89.95;92787.16;5043559;28;20087;-79
2022/12/21 07:06:00;;;;;;;10.95;4.45;;;;;;;3.40;90.24;92793.03;5043036;28;20033;-79
2022/12/21 07:08:27;;;;;;;6.93;3.45;;;;;;;3.39;90.32;92790.66;5043568;28;20042;-79
2022/12/21 07:10:57;;;;;;;10.60;5.03;;;;;;;3.38;90.58;92789.88;5043592;28;20113;-80
2022/12/21 07:13:25;;;;;;;7.95;3.45;;;;;;;3.37;91.27;92801.25;5042597;28;20037;-79
2022/12/21 07:15:51;;;;;;;4.63;2.40;;;;;;;3.33;91.18;92800.13;5042350;28;20045;-79
2022/12/21 07:18:16;;;;;;;8.35;2.40;;;;;;;3.31;91.67;92810.75;5076811;28;20047;-80
2022/12/21 07:20:42;;;;;;;4.20;1.95;;;;;;;3.33;92.01;92815.66;5081771;28;20036;-80
2022/12/21 07:23:08;;;;;;;4.18;2.08;;;;;;;3.29;91.73;92810.19;5063318;28;20033;-79
2022/12/21 07:25:33;;;;;;;3.40;1.70;;;;;;;3.31;92.48;92815.09;5081529;28;20032;-80
2022/12/21 07:27:59;;;;;;;3.78;1.85;;;;;;;3.29;92.83;92804.22;5060644;28;20041;-80
2022/12/21 07:30:24;;;;;;;2.78;1.65;;;;;;;3.28;92.35;92795.66;5061607;28;20041;-78
2022/12/21 07:32:53;;;;;;;3.67;2.03;;;;;;;3.32;92.46;92790.81;5043375;28;20377;-79
2022/12/21 07:35:23;;;;;;;4.05;2.00;;;;;;;3.44;92.34;92801.88;5042379;28;20029;-80
2022/12/21 07:37:50;;;;;;;3.88;1.73;;;;;;;3.51;91.90;92792.19;5041942;28;20445;-79
2022/12/21 07:40:17;;;;;;;3.92;2.05;;;;;;;3.60;90.43;92795.13;5041649;28;20018;-79
2022/12/21 07:42:44;;;;;;;3.60;1.95;;;;;;;3.55;90.41;92792.47;5042183;28;20542;-79
2022/12/21 07:45:32;;;;;;;3.92;1.77;;;;;;;3.60;90.31;92799.53;5039611;28;20056;-79
2022/12/21 07:47:59;;;;;;;3.83;2.10;;;;;;;3.68;90.23;92801.75;5023360;28;20165;-80
2022/12/21 07:50:24;;;;;;;3.60;1.92;;;;;;;3.80;89.84;92804.25;5041209;28;20057;-79
2022/12/21 07:52:50;;;;;;;4.30;2.33;;;;;;;3.89;89.52;92813.19;5041364;28;20041;-79
2022/12/21 07:55:16;;;;;;;3.90;2.25;;;;;;;4.09;89.64;92807.50;5041303;28;20042;-80
2022/12/21 07:57:42;;;;;;;5.15;2.55;;;;;;;4.64;89.15;92811.06;5040840;28;20036;-79
2022/12/21 08:00:09;;;;;;;7.72;2.95;;;;;;;5.72;80.51;92803.34;5041618;28;20044;-79
2022/12/21 08:02:43;;;;;;;10.75;2.88;;;;;;;7.00;77.97;92803.25;5041855;28;20124;-80
2022/12/21 08:05:09;;;;;;;7.65;2.70;;;;;;;7.23;75.00;92807.25;5024092;28;20057;-80
2022/12/21 08:07:34;;;;;;;23.48;3.65;;;;;;;6.93;74.13;92800.13;5023696;28;20087;-79
2022/12/21 08:10:00;;;;;;;11.85;3.15;;;;;;;6.61;75.15;92808.84;5023657;28;20045;-78
2022/12/21 08:12:26;;;;;;;20.88;3.03;;;;;;;6.28;76.25;92797.75;5022872;28;20034;-80
2022/12/21 08:14:52;;;;;;;9.88;2.33;;;;;;;6.09;76.53;92794.78;5023196;28;20044;-78
2022/12/21 08:17:17;;;;;;;15.68;2.42;;;;;;;5.88;78.37;92796.44;5006992;28;20483;-80
2022/12/21 08:19:43;;;;;;;11.18;2.03;;;;;;;5.73;79.26;92799.69;5007419;28;20038;-78
2022/12/21 08:22:09;;;;;;;11.98;2.30;;;;;;;5.61;79.29;92797.25;5042172;28;20052;-79
2022/12/21 08:24:35;;;;;;;7.05;1.90;;;;;;;5.51;79.94;92791.97;5024544;28;20088;-79
2022/12/21 08:27:01;;;;;;;6.22;2.72;;;;;;;5.40;79.97;92795.50;5045801;28;20406;-79
2022/12/21 08:29:27;;;;;;;5.40;2.38;;;;;;;5.37;80.08;92791.59;5061169;28;20029;-79
2022/12/21 08:31:53;;;;;;;3.78;1.95;;;;;;;5.42;81.52;92793.47;5060328;28;20383;-80
2022/12/21 08:34:19;;;;;;;8.35;2.15;;;;;;;5.41;81.45;92782.28;5061028;28;20056;-78
2022/12/21 08:36:44;;;;;;;7.60;2.20;;;;;;;5.43;81.20;92785.44;5043971;28;20085;-79
2022/12/21 08:39:10;;;;;;;5.30;2.00;;;;;;;5.48;81.26;92784.69;5061379;28;20045;-79
2022/12/21 08:41:37;;;;;;;9.60;2.28;;;;;;;5.54;81.49;92781.13;5061450;28;20091;-79
2022/12/21 08:44:02;;;;;;;7.97;1.98;;;;;;;5.81;81.67;92791.44;5043741;28;20032;-80
2022/12/21 08:46:28;;;;;;;7.00;2.88;;;;;;;6.20;78.06;92793.03;5060850;28;20671;-80
2022/12/21 08:48:54;;;;;;;11.43;5.10;;;;;;;6.70;76.32;92799.50;5061991;28;20045;-79
2022/12/21 08:51:19;;;;;;;5.35;2.10;;;;;;;7.08;73.83;92793.13;5060974;28;20033;-79
2022/12/21 08:53:45;;;;;;;5.47;2.00;;;;;;;7.10;72.13;92800.69;5060834;28;20075;-79
2022/12/21 08:56:10;;;;;;;4.90;1.90;;;;;;;7.25;71.82;92795.53;5046218;28;20029;-80
2022/12/21 08:58:36;;;;;;;4.65;1.80;;;;;;;7.78;69.81;92792.72;5065091;28;20395;-80
2022/12/21 09:01:02;;;;;;;3.88;1.98;;;;;;;7.87;69.78;92796.34;5065107;28;20033;-80
2022/12/21 09:03:27;;;;;;;4.97;1.73;;;;;;;7.85;68.86;92790.63;5064415;28;20047;-80
2022/12/21 09:05:54;;;;;;;3.92;2.00;;;;;;;7.98;67.94;92799.75;5065419;28;20092;-81
2022/12/21 09:08:20;;;;;;;7.70;2.55;;;;;;;8.00;67.96;92807.31;5063445;28;20071;-81
2022/12/21 09:10:46;;;;;;;5.90;2.45;;;;;;;8.12;67.39;92810.41;5064274;28;20056;-81
2022/12/21 09:13:12;;;;;;;6.60;2.67;;;;;;;8.08;68.16;92818.00;5063520;28;20033;-81
2022/12/21 09:15:41;;;;;;;5.60;2.85;;;;;;;7.90;68.85;92814.09;5045780;28;20041;-81
2022/12/21 09:18:08;;;;;;;5.50;2.80;;;;;;;8.20;67.68;92816.94;5046517;28;20036;-81
2022/12/21 09:20:34;;;;;;;6.35;3.58;;;;;;;8.27;68.56;92810.41;5063859;28;20025;-80
2022/12/21 09:23:00;;;;;;;7.03;3.42;;;;;;;8.98;68.06;92811.25;5063565;28;20033;-80
2022/12/21 09:25:26;;;;;;;5.00;3.00;;;;;;;9.75;62.17;92809.03;5064040;28;20123;-80
2022/12/21 09:27:51;;;;;;;4.57;2.88;;;;;;;10.98;58.29;92812.34;5045853;28;20087;-80
2022/12/21 09:30:17;;;;;;;7.22;3.80;;;;;;;11.56;56.82;92806.13;5046668;28;20037;-80
2022/12/21 09:32:42;;;;;;;9.40;4.10;;;;;;;11.52;56.76;92808.50;5019584;28;20048;-79
2022/12/21 09:35:10;;;;;;;7.97;4.05;;;;;;;11.28;57.27;92818.25;5025690;28;20034;-81
2022/12/21 09:37:36;;;;;;;6.70;4.25;;;;;;;10.50;58.44;92809.72;5026180;28;20044;-81
2022/12/21 09:40:04;;;;;;;7.30;3.50;;;;;;;9.99;61.24;92813.53;5043439;28;20041;-81
2022/12/21 09:43:09;;;;;;;6.43;3.90;;;;;;;10.21;59.70;92800.78;5044789;28;20034;-81
2022/12/21 09:45:56;;;;;;;6.45;3.78;;;;;;;9.96;60.48;92811.47;4993335;28;20098;-81
2022/12/21 09:48:27;;;;;;;10.45;4.82;;;;;;;9.19;63.55;92809.34;5043332;28;20092;-80
2022/12/21 09:50:57;;;;;;;12.40;4.20;;;;;;;8.84;64.85;92810.28;5043535;28;20044;-80
2022/12/21 09:53:33;;;;;;;7.53;4.70;;;;;;;8.50;66.03;92801.25;5025798;28;20202;-81
2022/12/21 09:56:00;;;;;;;6.53;4.07;;;;;;;8.19;67.42;92808.31;5043492;28;20069;-81
2022/12/21 09:58:37;;;;;;;9.45;4.03;;;;;;;8.17;68.00;92801.81;5042614;28;20081;-81
2022/12/21 10:01:10;;;;;;;9.85;3.80;;;;;;;8.23;67.05;92800.75;5042604;28;20092;-80
2022/12/21 10:03:45;;;;;;;7.50;3.70;;;;;;;7.93;67.10;92797.16;5042088;28;20033;-80
2022/12/21 10:06:27;;;;;;;7.32;3.92;;;;;;;8.11;68.66;92791.38;5042059;28;20029;-80
2022/12/21 10:09:14;;;;;;;8.02;3.88;;;;;;;8.84;65.62;92795.41;5025306;28;20060;-80
2022/12/21 10:11:52;;;;;;;6.72;3.70;;;;;;;9.73;63.35;92784.97;5025314;28;20106;-81
2022/12/21 10:14:30;;;;;;;6.30;3.85;;;;;;;10.32;59.63;92779.81;5043494;28;20487;-80
2022/12/21 10:17:11;;;;;;;5.13;2.83;;;;;;;9.94;58.55;92782.97;5025485;28;20037;-81
2022/12/21 10:19:51;;;;;;;7.80;3.60;;;;;;;9.85;59.16;92782.00;5042916;28;20092;-80
2022/12/21 10:22:29;;;;;;;6.35;3.42;;;;;;;9.76;61.30;92786.25;5043357;28;20515;-81
2022/12/21 10:25:01;;;;;;;9.20;3.83;;;;;;;9.39;63.89;92790.19;5042340;28;20040;-80
2022/12/21 10:27:45;;;;;;;7.00;3.83;;;;;;;9.09;63.93;92794.50;5034577;28;20042;-81
2022/12/21 10:30:16;;;;;;;10.27;4.13;;;;;;;8.92;65.00;92787.03;5023108;28;20026;-81
2022/12/21 10:32:46;;;;;;;8.82;4.00;;;;;;;9.00;64.42;92779.66;5022714;28;20120;-80
2022/12/21 10:35:33;;;;;;;8.65;4.50;;;;;;;9.16;63.94;92783.75;5023305;28;20504;-82
2022/12/21 10:37:59;;;;;;;5.25;2.97;;;;;;;9.08;64.03;92772.06;5023091;28;20030;-80
2022/12/21 10:40:31;;;;;;;4.78;2.80;;;;;;;9.39;62.23;92771.91;4993125;28;20065;-80
2022/12/21 10:42:59;;;;;;;5.07;2.97;;;;;;;9.32;62.40;92764.34;5031084;28;20034;-80
2022/12/21 10:45:25;;;;;;;5.88;3.50;;;;;;;9.42;61.48;92763.50;5030869;28;20044;-79
2022/12/21 10:47:50;;;;;;;7.18;3.95;;;;;;;9.30;63.44;92766.47;5012740;28;20475;-81
2022/12/21 10:50:32;;;;;;;6.55;3.60;;;;;;;9.19;64.32;92767.56;5008496;28;20049;-81
2022/12/21 10:53:18;;;;;;;6.93;3.38;;;;;;;9.13;64.16;92763.41;5026387;28;20121;-81
2022/12/21 10:55:44;;;;;;;7.60;3.58;;;;;;;9.17;62.93;92748.78;5025980;28;20049;-81
2022/12/21 10:58:23;;;;;;;6.50;3.03;;;;;;;9.32;63.70;92761.75;5026216;28;20137;-81
2022/12/21 11:01:03;;;;;;;5.68;3.25;;;;;;;9.70;60.92;92754.13;5025668;28;20030;-81
2022/12/21 11:03:31;;;;;;;7.80;2.67;;;;;;;9.33;60.93;92746.84;5008680;28;20049;-81
2022/12/21 11:05:57;;;;;;;5.88;3.50;;;;;;;9.43;61.57;92740.75;5025923;28;20025;-81
2022/12/21 11:08:33;;;;;;;5.68;3.45;;;;;;;9.33;62.54;92734.56;5025393;28;20034;-82
2022/12/21 11:11:03;;;;;;;9.75;4.35;;;;;;;9.80;62.66;92729.75;5025848;28;20106;-80
2022/12/21 11:13:32;;;;;;;6.72;4.25;;;;;;;10.01;61.81;92731.13;5008084;28;20109;-80
2022/12/21 11:15:58;;;;;;;11.23;4.65;;;;;;;9.84;63.32;92725.56;5024749;28;20030;-81
2022/12/21 11:18:35;;;;;;;8.20;5.15;;;;;;;9.54;63.49;92711.66;5007765;28;20109;-81
2022/12/21 11:21:03;;;;;;;9.52;4.90;;;;;;;9.32;65.31;92711.31;5024860;28;20034;-81
2022/12/21 11:23:29;;;;;;;9.38;3.88;;;;;;;9.43;63.84;92706.78;5025280;28;20036;-81
2022/12/21 11:25:56;;;;;;;7.00;3.60;;;;;;;9.69;62.47;92702.94;5025257;28;20042;-81
2022/12/21 11:28:22;;;;;;;8.68;4.20;;;;;;;10.35;62.72;92704.13;5022790;28;20117;-81
2022/12/21 11:31:02;;;;;;;8.07;4.50;;;;;;;10.86;61.21;92691.50;5043244;28;20041;-81
2022/12/21 11:33:29;;;;;;;7.40;4.28;;;;;;;11.25;58.21;92691.97;5044461;28;20127;-81
2022/12/21 11:36:13;;;;;;;7.68;4.55;;;;;;;10.90;59.41;92682.81;5043447;28;20083;-81
2022/12/21 11:38:40;;;;;;;7.07;4.38;;;;;;;10.76;58.43;92687.97;5025399;28;20065;-81
2022/12/21 11:41:24;;;;;;;6.25;4.32;;;;;;;10.19;60.79;92693.03;5025889;28;20601;-81
2022/12/21 11:43:50;;;;;;;9.32;4.38;;;;;;;10.20;60.78;92691.97;5043098;28;20037;-81
2022/12/21 11:46:36;;;;;;;6.60;4.03;;;;;;;10.34;60.96;92679.03;5043430;28;20376;-81
2022/12/21 11:49:13;;;;;;;7.68;4.68;;;;;;;10.53;60.03;92676.44;5043667;28;20038;-80
2022/12/21 11:51:59;;;;;;;7.22;4.72;;;;;;;10.60;58.67;92671.66;5025436;28;20049;-81
2022/12/21 11:54:49;;;;;;;12.30;4.07;;;;;;;10.15;60.00;92676.31;5024563;28;20037;-81
2022/12/21 11:57:46;;;;;;;12.35;4.53;;;;;;;10.35;60.25;92674.56;5042857;28;20025;-81
2022/12/21 12:00:21;;;;;;;7.13;4.20;;;;;;;10.46;59.61;92670.78;5042549;28;20105;-81
2022/12/21 12:03:24;;;;;;;10.15;4.95;;;;;;;9.76;61.30;92666.00;5042999;28;20039;-80
2022/12/21 12:06:02;;;;;;;9.77;4.57;;;;;;;9.42;63.44;92663.44;5041751;28;20478;-80